Time;durP1;ratioP1;P1;durP2;ratioP2;P2;SDS_P1;SDS_P2;PMS_P1;PMS_P2;Temp;Humidity;BMP_temperature;BMP_pressure;BME280_temperature;BME280_humidity;BME280_pressure;Samples;Min_cycle;Max_cycle;Signal;HPM_P1;HPM_P2
2021/07/18 00:02:23;;;;;;;5.30;2.70;;;;;;;18.07;79.88;101233.44;5072104;28;20250;-71
2021/07/18 00:04:50;;;;;;;4.73;2.47;;;;;;;18.16;79.40;101226.47;5055358;28;20178;-72
2021/07/18 00:07:15;;;;;;;7.13;2.83;;;;;;;18.09;79.56;101218.84;5055664;28;20603;-71
2021/07/18 00:09:40;;;;;;;9.37;3.27;;;;;;;18.05;79.82;101236.28;5071893;28;20206;-72
2021/07/18 00:12:06;;;;;;;8.47;3.03;;;;;;;18.01;80.24;101223.13;5071920;28;20186;-72
2021/07/18 00:14:32;;;;;;;7.50;2.80;;;;;;;17.97;80.37;101230.63;5071934;28;20182;-73
2021/07/18 00:16:57;;;;;;;8.23;3.10;;;;;;;17.90;80.96;101237.47;5071887;28;20171;-72
2021/07/18 00:19:23;;;;;;;6.50;2.60;;;;;;;17.80;81.20;101237.28;5055107;28;20179;-71
2021/07/18 00:21:48;;;;;;;4.80;2.40;;;;;;;17.84;81.24;101237.94;5071884;28;20178;-72
2021/07/18 00:24:13;;;;;;;6.57;3.10;;;;;;;17.81;81.34;101228.22;5073206;28;20539;-72
2021/07/18 00:26:39;;;;;;;8.10;2.83;;;;;;;17.80;81.51;101231.91;5072114;28;20175;-74
2021/07/18 00:29:04;;;;;;;5.03;2.90;;;;;;;17.76;81.72;101224.16;5071924;28;20202;-73
2021/07/18 00:31:29;;;;;;;4.77;2.87;;;;;;;17.72;81.86;101223.53;5072282;28;20178;-72
2021/07/18 00:33:55;;;;;;;5.77;3.07;;;;;;;17.69;82.27;101226.47;5071791;28;20193;-72
2021/07/18 00:36:20;;;;;;;7.10;3.37;;;;;;;17.65;82.97;101233.03;5071788;28;20197;-72
2021/07/18 00:38:45;;;;;;;6.93;2.77;;;;;;;17.61;83.01;101236.97;5071630;28;20187;-72
2021/07/18 00:41:11;;;;;;;3.87;2.33;;;;;;;17.61;82.92;101233.41;5071595;28;20190;-72
2021/07/18 00:43:36;;;;;;;5.83;2.90;;;;;;;17.60;82.54;101237.06;5071705;28;20183;-72
2021/07/18 00:46:02;;;;;;;7.23;2.80;;;;;;;17.59;83.08;101238.06;5071746;28;20171;-72
2021/07/18 00:48:29;;;;;;;9.17;2.97;;;;;;;17.58;83.14;101236.34;5071510;28;20281;-72
2021/07/18 00:50:55;;;;;;;7.87;3.57;;;;;;;17.65;82.94;101234.88;5054653;28;20175;-72
2021/07/18 00:53:20;;;;;;;8.80;3.50;;;;;;;17.57;82.73;101232.78;5055004;28;20274;-72
2021/07/18 00:55:46;;;;;;;7.67;3.77;;;;;;;17.57;83.68;101240.00;5054821;28;20636;-72
2021/07/18 00:58:14;;;;;;;8.43;3.43;;;;;;;17.58;83.40;101226.41;5071291;28;20218;-71
2021/07/18 01:00:39;;;;;;;9.83;3.77;;;;;;;17.61;83.67;101226.16;5071652;28;20167;-72
2021/07/18 01:03:05;;;;;;;11.17;4.00;;;;;;;17.53;84.62;101228.59;5054578;28;20193;-72
2021/07/18 01:05:30;;;;;;;11.70;3.87;;;;;;;17.45;84.99;101226.44;5071518;28;20245;-72
2021/07/18 01:07:56;;;;;;;6.73;3.17;;;;;;;17.39;85.57;101216.13;5054477;28;20199;-72
2021/07/18 01:10:21;;;;;;;5.13;3.23;;;;;;;17.37;85.81;101223.47;5071380;28;20175;-72
2021/07/18 01:12:46;;;;;;;7.50;3.40;;;;;;;17.37;86.13;101225.31;5071725;28;20539;-72
2021/07/18 01:15:13;;;;;;;6.90;3.30;;;;;;;17.30;86.64;101221.34;5071426;28;20540;-71
2021/07/18 01:17:38;;;;;;;7.20;2.87;;;;;;;17.25;87.08;101215.44;5071220;28;20195;-72
2021/07/18 01:20:09;;;;;;;5.33;3.17;;;;;;;17.17;87.51;101221.41;5073179;28;20564;-72
2021/07/18 01:22:34;;;;;;;6.67;3.13;;;;;;;17.14;87.92;101218.94;5054608;28;20167;-71
2021/07/18 01:25:00;;;;;;;7.10;3.30;;;;;;;17.14;88.73;101219.81;5071367;28;20530;-71
2021/07/18 01:27:26;;;;;;;4.10;3.17;;;;;;;17.13;88.52;101218.09;5071236;28;20194;-71
2021/07/18 01:29:52;;;;;;;4.83;2.90;;;;;;;17.24;88.28;101221.81;5054394;28;20203;-71
2021/07/18 01:32:18;;;;;;;9.13;3.63;;;;;;;17.16;89.07;101227.78;5054226;28;20174;-71
2021/07/18 01:34:43;;;;;;;4.87;2.73;;;;;;;17.14;88.90;101238.69;5071041;28;20170;-71
2021/07/18 01:37:08;;;;;;;7.07;3.40;;;;;;;17.09;89.45;101232.75;5074610;28;20194;-71
2021/07/18 01:39:34;;;;;;;6.53;3.10;;;;;;;17.08;89.51;101233.72;5074794;28;20532;-71
2021/07/18 01:41:59;;;;;;;7.23;3.20;;;;;;;17.05;89.93;101236.66;5074433;28;20202;-71
2021/07/18 01:44:25;;;;;;;6.50;3.10;;;;;;;17.03;89.83;101229.66;5074537;28;20171;-72
2021/07/18 01:46:51;;;;;;;7.90;3.10;;;;;;;17.03;90.07;101227.81;5057627;28;20289;-72
2021/07/18 01:49:16;;;;;;;7.17;3.20;;;;;;;17.02;90.29;101228.78;5074367;28;20191;-71
2021/07/18 01:51:41;;;;;;;6.30;3.53;;;;;;;17.03;90.35;101229.66;5057551;28;20182;-71
2021/07/18 01:54:10;;;;;;;7.00;3.57;;;;;;;16.99;90.53;101223.63;5074316;28;20209;-73
2021/07/18 01:56:35;;;;;;;5.30;3.37;;;;;;;16.99;90.72;101234.41;5074358;28;20194;-73
2021/07/18 01:59:01;;;;;;;6.47;3.57;;;;;;;16.96;91.28;101229.25;5074184;28;20567;-72
2021/07/18 02:01:28;;;;;;;10.23;3.30;;;;;;;16.94;91.03;101231.19;5074170;28;20289;-72
2021/07/18 02:03:54;;;;;;;9.43;3.63;;;;;;;16.93;91.41;101234.00;5074217;28;20166;-72
2021/07/18 02:06:22;;;;;;;7.83;3.50;;;;;;;16.89;91.17;101238.75;5057535;28;20167;-71
2021/07/18 02:08:48;;;;;;;7.67;2.93;;;;;;;16.88;91.16;101246.00;5074043;28;20194;-71
2021/07/18 02:11:16;;;;;;;10.70;3.13;;;;;;;16.85;91.14;101237.25;5057404;28;20621;-71
2021/07/18 02:13:41;;;;;;;8.00;3.20;;;;;;;16.84;91.42;101231.00;5057687;28;20178;-71
2021/07/18 02:16:06;;;;;;;8.30;3.00;;;;;;;16.84;91.62;101238.25;5058284;28;20202;-71
2021/07/18 02:18:31;;;;;;;5.57;2.77;;;;;;;16.84;91.84;101235.53;5073965;28;20190;-71
2021/07/18 02:20:57;;;;;;;9.00;2.90;;;;;;;16.85;91.41;101231.88;5073863;28;20181;-71
2021/07/18 02:23:22;;;;;;;6.43;2.80;;;;;;;16.85;91.56;101229.19;5073998;28;20194;-71
2021/07/18 02:25:49;;;;;;;5.87;2.83;;;;;;;16.90;91.51;101231.53;5074408;28;20182;-71
2021/07/18 02:28:14;;;;;;;7.10;2.93;;;;;;;16.85;92.12;101226.47;5057113;28;20202;-72
2021/07/18 02:30:39;;;;;;;5.73;2.93;;;;;;;16.86;91.90;101226.38;5073875;28;20175;-71
2021/07/18 02:33:05;;;;;;;12.67;3.17;;;;;;;16.86;92.07;101228.19;5073733;28;20175;-72
2021/07/18 02:35:31;;;;;;;5.17;2.90;;;;;;;16.88;92.08;101215.47;5056893;28;20182;-71
2021/07/18 02:37:56;;;;;;;5.63;3.00;;;;;;;16.89;91.77;101219.88;5073777;28;20697;-71
2021/07/18 02:40:22;;;;;;;6.33;3.17;;;;;;;16.90;91.73;101216.22;5073568;28;20629;-71
2021/07/18 02:42:47;;;;;;;7.10;3.33;;;;;;;16.91;92.13;101217.06;5073430;28;20193;-71
2021/07/18 02:45:14;;;;;;;4.53;3.40;;;;;;;16.92;92.06;101219.66;5073318;28;20175;-71
2021/07/18 02:47:40;;;;;;;4.33;3.10;;;;;;;16.92;91.58;101221.50;5055475;28;20190;-71
2021/07/18 02:50:07;;;;;;;6.80;2.90;;;;;;;16.93;91.99;101216.00;5056616;28;20281;-71
2021/07/18 02:52:32;;;;;;;7.90;3.50;;;;;;;16.90;92.15;101218.91;5074553;28;20179;-72
2021/07/18 02:54:57;;;;;;;5.33;3.17;;;;;;;16.91;92.26;101215.25;5056538;28;20246;-71
2021/07/18 02:57:23;;;;;;;6.30;3.20;;;;;;;16.87;92.13;101211.91;5073194;28;20229;-71
2021/07/18 02:59:48;;;;;;;6.33;2.80;;;;;;;16.91;92.11;101219.78;5073158;28;20160;-71
2021/07/18 03:02:13;;;;;;;6.63;2.93;;;;;;;16.95;92.28;101214.03;5073052;28;20175;-71
2021/07/18 03:04:39;;;;;;;8.57;3.17;;;;;;;16.97;91.67;101212.09;5073087;28;20167;-72
2021/07/18 03:07:04;;;;;;;8.10;2.87;;;;;;;16.94;91.79;101206.94;5073267;28;20638;-72
2021/07/18 03:09:29;;;;;;;8.57;2.87;;;;;;;16.92;91.78;101214.28;5073019;28;20198;-72
2021/07/18 03:11:55;;;;;;;5.83;2.90;;;;;;;16.93;92.06;101217.81;5074268;28;20171;-72
2021/07/18 03:14:20;;;;;;;6.97;3.20;;;;;;;16.90;92.45;101218.06;5075514;28;20748;-72
2021/07/18 03:16:47;;;;;;;7.37;2.67;;;;;;;16.88;92.03;101220.88;5074369;28;20179;-72
2021/07/18 03:19:13;;;;;;;6.93;3.17;;;;;;;16.84;92.18;101219.38;5074506;28;20189;-73
2021/07/18 03:21:38;;;;;;;9.20;2.90;;;;;;;16.83;92.73;101223.03;5056054;28;20179;-72
2021/07/18 03:24:04;;;;;;;9.30;3.23;;;;;;;16.85;92.28;101223.78;5073817;28;20628;-72
2021/07/18 03:26:29;;;;;;;10.03;3.27;;;;;;;16.86;92.30;101222.81;5056664;28;20275;-72
2021/07/18 03:28:55;;;;;;;6.07;2.50;;;;;;;16.93;92.21;101217.81;5055615;28;20745;-71
2021/07/18 03:31:20;;;;;;;8.07;3.10;;;;;;;16.92;92.36;101214.28;5072455;28;20163;-72
2021/07/18 03:33:46;;;;;;;6.33;2.60;;;;;;;16.88;92.39;101216.34;5072968;28;20253;-72
2021/07/18 03:36:11;;;;;;;6.97;2.70;;;;;;;16.91;92.52;101217.94;5055637;28;20186;-71
2021/07/18 03:38:36;;;;;;;5.47;2.83;;;;;;;16.95;91.94;101211.34;5072368;28;20191;-71
2021/07/18 03:41:02;;;;;;;7.60;2.83;;;;;;;16.91;92.53;101209.84;5072353;28;20650;-71
2021/07/18 03:43:27;;;;;;;4.87;2.70;;;;;;;16.95;92.07;101208.66;5072497;28;20333;-71
2021/07/18 03:45:53;;;;;;;7.83;3.13;;;;;;;16.91;92.06;101209.84;5055637;28;20206;-71
2021/07/18 03:48:18;;;;;;;6.20;2.57;;;;;;;16.92;93.12;101216.97;5055257;28;20207;-71
2021/07/18 03:50:43;;;;;;;6.47;2.93;;;;;;;16.92;93.15;101210.72;5072124;28;20179;-71
2021/07/18 03:53:09;;;;;;;9.30;3.17;;;;;;;16.93;93.35;101212.44;5072038;28;20179;-71
2021/07/18 03:55:34;;;;;;;10.07;3.30;;;;;;;16.90;93.55;101207.28;5072407;28;20597;-71
2021/07/18 03:57:59;;;;;;;7.47;3.17;;;;;;;16.80;94.03;101201.69;5079330;23;20233;-69
2021/07/18 04:00:24;;;;;;;8.77;2.70;;;;;;;16.83;93.89;101204.16;5072678;28;20171;-69
2021/07/18 04:02:50;;;;;;;4.83;2.53;;;;;;;16.89;93.85;101203.72;5072239;28;20178;-69
2021/07/18 04:05:15;;;;;;;5.53;2.73;;;;;;;16.95;93.84;101210.47;5055357;28;20585;-69
2021/07/18 04:07:41;;;;;;;6.77;2.87;;;;;;;16.92;93.82;101211.56;5073765;28;20199;-68
2021/07/18 04:10:07;;;;;;;11.57;2.83;;;;;;;16.96;93.84;101209.50;5072347;28;20289;-69
2021/07/18 04:12:32;;;;;;;11.40;2.60;;;;;;;17.00;93.69;101206.47;5071813;28;20290;-68
2021/07/18 04:14:57;;;;;;;7.23;2.40;;;;;;;17.01;93.21;101210.03;5073100;28;20182;-69
2021/07/18 04:17:23;;;;;;;4.67;2.60;;;;;;;17.00;93.94;101209.16;5072057;28;20179;-69
2021/07/18 04:19:48;;;;;;;9.60;2.73;;;;;;;17.02;93.66;101207.22;5071993;28;20194;-69
2021/07/18 04:22:13;;;;;;;5.63;2.60;;;;;;;17.08;94.02;101205.91;5073136;28;20171;-69
2021/07/18 04:24:38;;;;;;;8.33;2.50;;;;;;;17.10;93.95;101209.38;5073266;28;20190;-69
2021/07/18 04:27:04;;;;;;;8.30;2.70;;;;;;;17.14;93.66;101206.34;5071833;28;20182;-69
2021/07/18 04:29:29;;;;;;;9.43;2.90;;;;;;;17.17;94.00;101211.50;5072933;28;20205;-69
2021/07/18 04:31:55;;;;;;;6.50;2.70;;;;;;;17.25;93.50;101218.16;5071893;28;20190;-69
2021/07/18 04:34:20;;;;;;;4.90;2.43;;;;;;;17.30;93.74;101208.72;5072124;28;20228;-69
2021/07/18 04:36:46;;;;;;;4.33;2.53;;;;;;;17.29;93.68;101211.53;5071860;28;20631;-69
2021/07/18 04:39:11;;;;;;;10.80;2.47;;;;;;;17.35;93.64;101202.97;5072968;28;20594;-68
2021/07/18 04:41:37;;;;;;;10.00;2.73;;;;;;;17.42;93.68;101217.72;5072023;28;20183;-69
2021/07/18 04:44:05;;;;;;;6.23;2.50;;;;;;;17.46;93.82;101220.06;5071705;28;20559;-69
2021/07/18 04:46:32;;;;;;;4.00;2.30;;;;;;;17.54;93.44;101230.31;5073412;28;20171;-69
2021/07/18 04:48:57;;;;;;;5.70;2.77;;;;;;;17.57;93.23;101230.06;5072704;28;20594;-69
2021/07/18 04:51:22;;;;;;;6.70;2.23;;;;;;;17.65;92.84;101229.50;5073401;28;20189;-69
2021/07/18 04:53:47;;;;;;;7.67;2.37;;;;;;;17.72;93.25;101214.56;5071862;28;20186;-69
2021/07/18 04:56:14;;;;;;;5.33;2.07;;;;;;;17.71;93.14;101215.56;5071597;28;20175;-69
2021/07/18 04:58:39;;;;;;;6.13;2.43;;;;;;;17.90;92.36;101215.00;5071347;28;20210;-69
2021/07/18 05:01:05;;;;;;;7.20;2.47;;;;;;;17.91;92.33;101214.03;5073128;28;20190;-69
2021/07/18 05:03:30;;;;;;;6.87;2.57;;;;;;;18.03;91.72;101210.38;5073058;28;20182;-69
2021/07/18 05:05:56;;;;;;;7.37;2.47;;;;;;;18.04;91.40;101214.78;5071689;28;20171;-69
2021/07/18 05:08:21;;;;;;;12.63;2.70;;;;;;;17.80;93.48;101217.53;5072826;28;20210;-69
2021/07/18 05:10:46;;;;;;;10.33;2.43;;;;;;;18.01;92.60;101220.44;5071885;28;20536;-69
2021/07/18 05:13:12;;;;;;;7.97;2.70;;;;;;;17.98;92.97;101215.28;5077077;28;20175;-69
2021/07/18 05:15:37;;;;;;;5.37;2.30;;;;;;;18.22;92.12;101224.16;5077121;28;20174;-69
2021/07/18 05:18:11;;;;;;;6.43;2.40;;;;;;;18.52;89.99;101219.97;5076236;28;20571;-69
2021/07/18 05:20:36;;;;;;;10.03;2.10;;;;;;;18.54;89.27;101216.16;5074809;28;20175;-69
2021/07/18 05:23:01;;;;;;;7.03;2.20;;;;;;;18.49;89.95;101212.97;5076171;28;20190;-69
2021/07/18 05:25:27;;;;;;;5.43;2.03;;;;;;;18.42;89.65;101220.72;5076527;28;20178;-69
2021/07/18 05:27:52;;;;;;;7.40;2.13;;;;;;;18.62;88.11;101230.00;5075348;28;20293;-69
2021/07/18 05:30:17;;;;;;;4.73;1.90;;;;;;;18.81;87.17;101228.50;5074973;28;20609;-69
2021/07/18 05:32:43;;;;;;;8.37;1.83;;;;;;;18.81;87.55;101223.09;5076175;28;20190;-70
2021/07/18 05:35:09;;;;;;;4.97;1.77;;;;;;;19.04;86.15;101217.53;5076204;28;20185;-69
2021/07/18 05:37:34;;;;;;;3.10;1.60;;;;;;;18.87;85.53;101219.88;5075858;28;20198;-68
2021/07/18 05:39:59;;;;;;;9.63;3.40;;;;;;;19.24;84.59;101218.56;5075828;28;20534;-68
2021/07/18 05:42:25;;;;;;;5.33;1.97;;;;;;;18.95;85.35;101228.22;5075918;28;20229;-68
2021/07/18 05:44:50;;;;;;;3.50;1.67;;;;;;;19.08;84.12;101233.50;5075648;28;20507;-68
2021/07/18 05:47:15;;;;;;;4.87;1.60;;;;;;;19.40;83.01;101218.16;5075713;28;20175;-69
2021/07/18 05:49:41;;;;;;;5.50;1.90;;;;;;;19.18;83.82;101226.34;5075703;28;20272;-68
2021/07/18 05:52:06;;;;;;;3.80;1.40;;;;;;;19.45;82.28;101229.47;5075629;28;20623;-68
2021/07/18 05:54:32;;;;;;;5.53;1.83;;;;;;;19.39;82.40;101229.13;5074725;28;20183;-68
2021/07/18 05:56:57;;;;;;;8.97;2.00;;;;;;;19.39;82.52;101226.41;5075939;28;20617;-68
2021/07/18 05:59:22;;;;;;;7.70;1.83;;;;;;;19.56;81.00;101234.00;5075367;28;20209;-68
2021/07/18 06:01:49;;;;;;;3.93;1.70;;;;;;;19.48;81.54;101228.34;5076235;28;20190;-69
2021/07/18 06:04:14;;;;;;;5.67;1.60;;;;;;;19.30;80.38;101222.59;5074902;28;20193;-68
2021/07/18 06:06:40;;;;;;;8.37;1.80;;;;;;;19.28;80.16;101221.88;5076132;28;20237;-70
2021/07/18 06:09:05;;;;;;;7.50;1.90;;;;;;;19.16;80.80;101221.06;5075962;28;20226;-69
2021/07/18 06:11:30;;;;;;;4.93;1.70;;;;;;;19.47;79.11;101223.91;5076395;28;20179;-69
2021/07/18 06:13:56;;;;;;;3.37;1.50;;;;;;;19.49;78.11;101233.63;5074702;28;20171;-68
2021/07/18 06:16:21;;;;;;;2.77;1.20;;;;;;;19.43;78.89;101238.69;5074027;28;20179;-68
2021/07/18 06:18:47;;;;;;;4.70;1.70;;;;;;;19.58;78.17;101241.00;5074372;28;20273;-68
2021/07/18 06:21:12;;;;;;;3.87;1.60;;;;;;;19.48;78.59;101236.47;5075210;28;20181;-68
2021/07/18 06:23:37;;;;;;;7.53;1.80;;;;;;;19.65;77.63;101244.91;5075041;28;20179;-69
2021/07/18 06:26:04;;;;;;;5.23;1.67;;;;;;;19.65;77.11;101242.19;5074170;28;20233;-68
2021/07/18 06:28:30;;;;;;;3.23;1.50;;;;;;;19.91;76.79;101242.69;5073808;28;20583;-69
2021/07/18 06:30:56;;;;;;;4.33;1.73;;;;;;;20.02;75.93;101254.44;5075062;28;20175;-69
2021/07/18 06:33:21;;;;;;;4.63;1.57;;;;;;;20.30;75.33;101256.50;5057370;28;20206;-69
2021/07/18 06:35:47;;;;;;;3.80;1.40;;;;;;;20.36;75.00;101255.97;5075304;28;20189;-69
2021/07/18 06:38:12;;;;;;;7.17;1.70;;;;;;;20.20;74.96;101261.88;5074809;28;20203;-69
2021/07/18 06:40:38;;;;;;;5.27;1.63;;;;;;;20.09;75.79;101267.38;5074963;28;20182;-69
2021/07/18 06:43:03;;;;;;;4.67;1.30;;;;;;;20.11;74.31;101265.38;5073897;28;20563;-69
2021/07/18 06:45:28;;;;;;;6.83;1.63;;;;;;;20.39;74.39;101266.53;5074997;28;20582;-69
2021/07/18 06:47:53;;;;;;;3.40;1.50;;;;;;;19.91;75.30;101261.66;5074018;28;20194;-69
2021/07/18 06:50:20;;;;;;;4.80;1.60;;;;;;;20.48;73.52;101270.34;5075067;28;20207;-68
2021/07/18 06:52:45;;;;;;;5.67;1.50;;;;;;;20.73;72.93;101271.72;5074279;28;20171;-69
2021/07/18 06:55:11;;;;;;;5.40;1.53;;;;;;;21.07;70.66;101258.72;5075107;28;20182;-69
2021/07/18 06:57:37;;;;;;;6.07;1.50;;;;;;;20.72;70.89;101262.75;5073940;28;20238;-68
2021/07/18 07:00:04;;;;;;;4.43;1.40;;;;;;;21.01;69.85;101273.72;5075501;28;20198;-69
2021/07/18 07:02:29;;;;;;;6.47;1.53;;;;;;;20.72;71.03;101273.59;5075020;28;20182;-68
2021/07/18 07:04:54;;;;;;;4.83;1.33;;;;;;;20.93;70.05;101265.41;5075518;28;20232;-69
2021/07/18 07:07:20;;;;;;;9.37;2.03;;;;;;;20.70;70.14;101262.03;5076362;28;20178;-69
2021/07/18 07:09:45;;;;;;;2.80;1.23;;;;;;;20.83;69.41;101267.22;5078341;28;20557;-69
2021/07/18 07:12:10;;;;;;;6.60;1.63;;;;;;;20.58;70.68;101276.66;5077299;28;20174;-68
2021/07/18 07:14:36;;;;;;;4.20;1.77;;;;;;;20.76;69.94;101269.59;5092052;28;20182;-69
2021/07/18 07:17:02;;;;;;;3.40;1.27;;;;;;;20.74;69.01;101276.16;5093391;28;20213;-70
2021/07/18 07:19:27;;;;;;;5.23;1.23;;;;;;;20.72;69.36;101265.44;5077317;28;20199;-70
2021/07/18 07:21:53;;;;;;;4.57;1.53;;;;;;;20.81;68.42;101269.19;5078548;28;20214;-69
2021/07/18 07:24:18;;;;;;;4.53;1.33;;;;;;;20.81;68.47;101264.66;5078562;28;20183;-68
2021/07/18 07:26:43;;;;;;;3.23;1.03;;;;;;;20.65;69.17;101272.41;5079197;28;20179;-70
2021/07/18 07:29:09;;;;;;;3.67;1.37;;;;;;;21.03;68.23;101273.56;5079472;28;20217;-69
2021/07/18 07:31:34;;;;;;;5.27;1.73;;;;;;;21.05;67.45;101258.88;5081241;28;20542;-69
2021/07/18 07:33:59;;;;;;;3.80;1.43;;;;;;;21.38;66.71;101260.41;5077705;28;20639;-71
2021/07/18 07:36:25;;;;;;;5.27;1.57;;;;;;;21.74;66.34;101267.00;5078351;28;20194;-70
2021/07/18 07:38:50;;;;;;;6.73;1.77;;;;;;;21.84;65.74;101267.00;5077352;28;20198;-69
2021/07/18 07:41:15;;;;;;;6.00;1.43;;;;;;;21.41;66.49;101273.69;5074491;28;20179;-70
2021/07/18 07:43:41;;;;;;;6.63;1.60;;;;;;;21.50;66.35;101267.41;5073576;28;20255;-69
2021/07/18 07:46:07;;;;;;;3.60;1.90;;;;;;;21.61;67.32;101265.59;5073863;28;20174;-69
2021/07/18 07:48:32;;;;;;;4.53;1.90;;;;;;;21.68;65.59;101267.59;5073494;28;20234;-69
2021/07/18 07:50:57;;;;;;;4.17;1.43;;;;;;;21.41;66.91;101261.97;5072281;28;20214;-69
2021/07/18 07:53:24;;;;;;;6.97;1.60;;;;;;;21.25;67.90;101267.09;5073923;28;20171;-69
2021/07/18 07:55:49;;;;;;;4.17;1.97;;;;;;;21.31;67.48;101270.13;5073189;28;20171;-69
2021/07/18 07:58:14;;;;;;;3.43;1.30;;;;;;;21.54;66.18;101265.28;5054918;28;20248;-69
2021/07/18 08:00:40;;;;;;;6.30;1.70;;;;;;;21.46;65.63;101267.84;5073219;28;20539;-69
2021/07/18 08:03:05;;;;;;;3.97;1.37;;;;;;;22.08;64.24;101267.47;5072142;28;20209;-69
2021/07/18 08:05:31;;;;;;;6.20;1.33;;;;;;;21.72;64.97;101270.88;5072210;28;20175;-69
2021/07/18 08:07:56;;;;;;;6.53;1.90;;;;;;;22.38;62.32;101274.56;5073031;28;20240;-69
2021/07/18 08:10:22;;;;;;;3.53;1.60;;;;;;;21.67;64.56;101270.44;5072939;28;20202;-69
2021/07/18 08:12:48;;;;;;;7.10;1.73;;;;;;;21.59;66.39;101264.88;5072227;28;20651;-69
2021/07/18 08:15:15;;;;;;;3.23;1.50;;;;;;;21.61;65.37;101262.88;5072333;28;20239;-69
2021/07/18 08:17:40;;;;;;;6.23;1.67;;;;;;;22.05;63.55;101269.63;5073267;28;20186;-69
2021/07/18 08:20:12;;;;;;;2.77;1.30;;;;;;;21.76;64.63;101262.28;5072329;28;20660;-69
2021/07/18 08:22:37;;;;;;;3.57;1.07;;;;;;;22.31;62.61;101272.59;5072333;28;20158;-68
2021/07/18 08:25:05;;;;;;;5.73;1.30;;;;;;;22.25;63.04;101268.56;5071979;28;20567;-68
2021/07/18 08:27:30;;;;;;;9.90;1.63;;;;;;;22.57;60.96;101272.78;5072939;28;20194;-69
2021/07/18 08:29:55;;;;;;;5.20;1.50;;;;;;;22.81;60.11;101275.88;5073050;28;20206;-68
2021/07/18 08:32:21;;;;;;;4.97;1.27;;;;;;;22.64;62.01;101269.31;5072028;28;20178;-69
2021/07/18 08:34:46;;;;;;;2.23;1.20;;;;;;;23.10;59.05;101264.88;5073255;28;20535;-70
2021/07/18 08:37:11;;;;;;;5.17;1.37;;;;;;;22.41;61.29;101278.84;5072977;28;20167;-69
2021/07/18 08:39:37;;;;;;;8.00;1.63;;;;;;;22.80;59.03;101263.25;5072103;28;20178;-69
2021/07/18 08:42:02;;;;;;;3.03;1.20;;;;;;;22.58;60.51;101269.06;5073012;28;20532;-69
2021/07/18 08:44:28;;;;;;;2.77;1.43;;;;;;;22.48;59.01;101262.78;5072860;28;20699;-70
2021/07/18 08:46:53;;;;;;;3.33;1.17;;;;;;;22.89;58.90;101265.09;5075257;28;20171;-69
2021/07/18 08:49:19;;;;;;;2.60;1.40;;;;;;;23.09;59.49;101274.03;5076927;28;20199;-69
2021/07/18 08:51:44;;;;;;;3.50;1.50;;;;;;;22.66;60.34;101283.63;5077067;28;20178;-70
2021/07/18 08:54:10;;;;;;;4.50;1.60;;;;;;;22.38;61.17;101285.44;5058852;28;20662;-70
2021/07/18 08:56:36;;;;;;;10.10;1.60;;;;;;;22.79;59.17;101283.31;5075784;28;20280;-69
2021/07/18 08:59:06;;;;;;;4.67;1.50;;;;;;;22.62;60.31;101284.06;5075296;28;20698;-69
2021/07/18 09:01:32;;;;;;;2.93;1.30;;;;;;;22.36;61.01;101284.72;5075498;28;20167;-69
2021/07/18 09:03:59;;;;;;;5.07;1.50;;;;;;;22.19;61.28;101274.59;5075618;28;20216;-70
2021/07/18 09:06:38;;;;;;;3.73;1.27;;;;;;;22.25;60.62;101274.00;5075211;28;20266;-68
2021/07/18 09:09:06;;;;;;;3.70;1.40;;;;;;;22.93;58.76;101269.22;5075222;28;20741;-68
2021/07/18 09:11:31;;;;;;;3.03;1.37;;;;;;;22.84;57.41;101269.28;5075162;28;20171;-68
2021/07/18 09:14:02;;;;;;;4.67;1.77;;;;;;;22.98;56.16;101260.63;5076571;28;20174;-68
2021/07/18 09:16:36;;;;;;;2.80;1.53;;;;;;;22.67;59.54;101260.88;5075333;28;20178;-69
2021/07/18 09:19:21;;;;;;;2.97;1.27;;;;;;;23.04;57.59;101254.56;5075079;28;20183;-68
2021/07/18 09:21:51;;;;;;;7.77;1.97;;;;;;;22.94;59.01;101265.50;5076216;28;20177;-68
2021/07/18 09:24:25;;;;;;;3.23;1.50;;;;;;;22.65;58.20;101260.16;5076367;28;20174;-68
2021/07/18 09:27:22;;;;;;;2.77;1.73;;;;;;;23.08;58.03;101265.03;5075020;28;20569;-68
2021/07/18 09:29:51;;;;;;;4.03;1.43;;;;;;;22.58;59.34;101253.59;5077534;28;20643;-69
2021/07/18 09:32:25;;;;;;;3.43;1.60;;;;;;;22.69;59.70;101252.56;5075441;28;20174;-69
2021/07/18 09:35:11;;;;;;;4.23;1.50;;;;;;;22.27;59.39;101257.53;5077068;28;20155;-69
2021/07/18 09:37:39;;;;;;;5.93;1.93;;;;;;;22.55;58.90;101253.88;5076610;28;20690;-69
2021/07/18 09:40:12;;;;;;;2.83;1.33;;;;;;;22.91;57.41;101254.06;5074939;28;20175;-69
2021/07/18 09:42:46;;;;;;;5.70;1.60;;;;;;;22.77;57.58;101245.38;5075974;28;20281;-69
2021/07/18 09:45:11;;;;;;;4.77;2.07;;;;;;;22.88;58.71;101248.94;5076461;28;20258;-69
2021/07/18 09:47:57;;;;;;;3.90;1.83;;;;;;;22.35;57.64;101254.97;5076084;28;20642;-69
2021/07/18 09:50:39;;;;;;;4.10;1.80;;;;;;;22.50;56.37;101245.31;5075610;28;20260;-69
2021/07/18 09:53:13;;;;;;;4.73;1.97;;;;;;;22.73;57.12;101252.13;5076366;28;20162;-69
2021/07/18 09:55:41;;;;;;;5.10;1.73;;;;;;;22.84;55.55;101248.38;5075967;28;20241;-69
2021/07/18 09:58:06;;;;;;;6.43;1.90;;;;;;;22.73;56.93;101245.81;5099571;22;20214;-71
2021/07/18 10:00:42;;;;;;;7.77;1.83;;;;;;;22.84;58.14;101247.50;5100349;28;20186;-72
2021/07/18 10:03:22;;;;;;;4.27;2.00;;;;;;;22.97;56.32;101240.69;5099185;28;20188;-71
2021/07/18 10:06:03;;;;;;;3.93;1.50;;;;;;;22.78;57.15;101244.34;5095866;28;20173;-70
2021/07/18 10:08:28;;;;;;;8.17;1.70;;;;;;;23.28;58.56;101243.09;5095944;28;20221;-72
2021/07/18 10:10:53;;;;;;;3.90;1.63;;;;;;;23.41;56.84;101249.03;5097666;28;20247;-71
2021/07/18 10:13:18;;;;;;;6.20;1.90;;;;;;;23.63;56.61;101247.75;5095899;28;20182;-72
2021/07/18 10:15:44;;;;;;;5.23;1.60;;;;;;;23.52;55.15;101247.97;5097176;28;20174;-72
2021/07/18 10:18:09;;;;;;;1.87;1.27;;;;;;;23.43;56.32;101244.31;5078272;28;20731;-71
2021/07/18 10:20:35;;;;;;;2.37;1.60;;;;;;;23.82;54.97;101244.03;5081071;28;20174;-72
2021/07/18 10:23:01;;;;;;;3.97;1.43;;;;;;;23.74;54.46;101244.78;5102449;28;20167;-73
2021/07/18 10:25:27;;;;;;;4.33;1.70;;;;;;;23.49;52.27;101238.25;5104365;28;20181;-72
2021/07/18 10:27:52;;;;;;;3.57;1.47;;;;;;;23.45;53.11;101235.97;5089717;28;20178;-71
2021/07/18 10:30:19;;;;;;;3.40;1.87;;;;;;;23.88;54.10;101221.59;5097944;28;20213;-72
2021/07/18 10:32:45;;;;;;;3.43;1.67;;;;;;;23.48;53.79;101227.50;5097228;28;20186;-71
2021/07/18 10:35:12;;;;;;;3.00;1.70;;;;;;;23.80;54.56;101237.88;5100539;28;20234;-72
2021/07/18 10:37:38;;;;;;;5.43;1.60;;;;;;;23.92;51.84;101223.84;5100048;28;20201;-71
2021/07/18 10:40:10;;;;;;;2.97;1.40;;;;;;;23.79;52.47;101236.13;5100668;28;20166;-72
2021/07/18 10:42:35;;;;;;;3.90;1.80;;;;;;;23.57;51.53;101230.16;5099516;28;20154;-72
2021/07/18 10:45:23;;;;;;;5.13;1.43;;;;;;;23.93;50.83;101221.97;5096692;28;20173;-73
2021/07/18 10:48:09;;;;;;;3.77;1.60;;;;;;;24.43;49.07;101218.59;5081599;28;20224;-72
2021/07/18 10:50:43;;;;;;;3.30;1.30;;;;;;;25.01;47.87;101226.06;5102328;28;20166;-71
2021/07/18 10:53:15;;;;;;;3.13;1.57;;;;;;;24.37;50.54;101227.41;5098344;28;20169;-72
2021/07/18 10:55:41;;;;;;;4.93;1.53;;;;;;;24.63;50.45;101237.31;5096831;28;20222;-72
2021/07/18 10:58:06;;;;;;;2.40;1.37;;;;;;;25.25;49.13;101239.78;5079829;28;20638;-72
2021/07/18 11:00:32;;;;;;;3.17;1.60;;;;;;;25.38;47.47;101228.38;5100380;28;20163;-72
2021/07/18 11:03:11;;;;;;;3.40;1.20;;;;;;;25.59;47.17;101228.75;5106319;28;20170;-73
2021/07/18 11:05:47;;;;;;;4.77;1.30;;;;;;;25.16;45.14;101225.25;5096403;28;20157;-71
2021/07/18 11:08:13;;;;;;;3.87;1.40;;;;;;;25.96;44.97;101238.38;5093916;28;20197;-71
2021/07/18 11:10:49;;;;;;;4.90;1.80;;;;;;;27.25;42.13;101234.47;5099807;28;20174;-72
2021/07/18 11:13:14;;;;;;;6.23;1.93;;;;;;;27.81;41.65;101237.00;5105238;28;20174;-72
2021/07/18 11:15:40;;;;;;;2.87;1.40;;;;;;;28.10;41.50;101239.00;5104049;28;20170;-73
2021/07/18 11:18:30;;;;;;;2.97;1.50;;;;;;;28.26;40.59;101231.50;5104050;28;20562;-71
2021/07/18 11:20:56;;;;;;;5.97;1.57;;;;;;;28.81;39.28;101232.09;5096460;28;20598;-71
2021/07/18 11:23:46;;;;;;;4.65;1.55;;;;;;;30.12;36.29;101241.03;5102658;28;20180;-72